Time;durP1;ratioP1;P1;durP2;ratioP2;P2;SDS_P1;SDS_P2;PMS_P1;PMS_P2;Temp;Humidity;BMP_temperature;BMP_pressure;BME280_temperature;BME280_humidity;BME280_pressure;Samples;Min_cycle;Max_cycle;Signal;HPM_P1;HPM_P2
2021/07/06 00:01:01;;;;;;;1.35;1.08;;;19.30;82.80;;;;;;5096111;28;20031;-37
2021/07/06 00:03:26;;;;;;;1.27;1.00;;;19.30;82.80;;;;;;5096045;28;20024;-37
2021/07/06 00:05:52;;;;;;;1.20;1.10;;;19.30;83.00;;;;;;5095789;28;20034;-37
2021/07/06 00:08:18;;;;;;;1.13;0.95;;;19.10;83.50;;;;;;5095946;28;20035;-36
2021/07/06 00:10:44;;;;;;;7.63;1.58;;;19.10;83.60;;;;;;5096080;28;20472;-36
2021/07/06 00:13:10;;;;;;;1.20;1.10;;;19.20;83.40;;;;;;5096636;28;20372;-36
2021/07/06 00:15:35;;;;;;;1.67;1.35;;;19.20;83.50;;;;;;5095813;28;20063;-36
2021/07/06 00:18:02;;;;;;;1.45;1.27;;;19.30;83.10;;;;;;5096284;28;20463;-36
2021/07/06 00:20:28;;;;;;;1.63;1.27;;;19.30;83.40;;;;;;5095640;28;20032;-36
2021/07/06 00:22:56;;;;;;;1.98;1.30;;;19.30;83.10;;;;;;5095826;28;20035;-37
2021/07/06 00:25:22;;;;;;;1.27;1.20;;;19.30;83.30;;;;;;5095574;28;20472;-42
2021/07/06 00:27:48;;;;;;;1.60;1.50;;;19.20;83.60;;;;;;5095849;28;20383;-37
2021/07/06 00:30:14;;;;;;;1.40;1.30;;;19.30;83.20;;;;;;5095747;28;20123;-37
2021/07/06 00:32:40;;;;;;;2.55;1.27;;;19.30;83.40;;;;;;5095284;28;20074;-37
2021/07/06 00:35:06;;;;;;;2.45;1.60;;;19.30;83.50;;;;;;5095215;28;20056;-36
2021/07/06 00:37:32;;;;;;;3.22;1.15;;;19.30;83.00;;;;;;5095307;28;20028;-36
2021/07/06 00:39:58;;;;;;;3.45;1.48;;;19.30;83.20;;;;;;5095570;28;20050;-37
2021/07/06 00:42:24;;;;;;;0.88;0.88;;;19.20;83.60;;;;;;5095228;28;20103;-37
2021/07/06 00:44:50;;;;;;;1.30;1.00;;;19.20;83.40;;;;;;5077328;28;20024;-37
2021/07/06 00:47:28;;;;;;;2.70;1.02;;;19.30;83.10;;;;;;5075875;28;20024;-37
2021/07/06 00:49:54;;;;;;;1.23;1.10;;;19.30;82.80;;;;;;5095184;28;20395;-35
2021/07/06 00:52:20;;;;;;;1.25;1.15;;;19.20;83.50;;;;;;5094917;28;20020;-36
2021/07/06 00:54:45;;;;;;;2.03;1.50;;;19.30;83.00;;;;;;5076898;28;20426;-36
2021/07/06 00:57:11;;;;;;;1.70;1.02;;;19.30;82.60;;;;;;5094941;28;20031;-37
2021/07/06 00:59:37;;;;;;;1.25;1.15;;;19.40;82.50;;;;;;5076635;28;20024;-37
2021/07/06 01:02:02;;;;;;;4.20;1.10;;;19.40;82.50;;;;;;5094619;28;20487;-37
2021/07/06 01:04:28;;;;;;;4.72;1.33;;;19.40;82.00;;;;;;5094383;28;20107;-37
2021/07/06 01:06:54;;;;;;;1.27;1.00;;;19.30;82.20;;;;;;5094728;28;20020;-37
2021/07/06 01:09:19;;;;;;;1.58;1.05;;;19.40;82.00;;;;;;5095025;28;20024;-37
2021/07/06 01:11:46;;;;;;;1.00;0.90;;;19.30;82.10;;;;;;5094729;28;20053;-37
2021/07/06 01:14:11;;;;;;;1.83;1.00;;;19.20;82.50;;;;;;5095001;28;20536;-36
2021/07/06 01:16:37;;;;;;;1.42;0.80;;;19.20;82.80;;;;;;5094433;28;20055;-36
2021/07/06 01:19:04;;;;;;;3.78;1.80;;;19.20;82.60;;;;;;5094766;28;20061;-36
2021/07/06 01:21:30;;;;;;;1.63;0.82;;;19.10;82.60;;;;;;5094274;28;20024;-36
2021/07/06 01:23:55;;;;;;;1.13;0.98;;;19.30;82.20;;;;;;5059445;28;20035;-36
2021/07/06 01:26:21;;;;;;;1.65;1.30;;;19.30;81.90;;;;;;5094572;28;20020;-36
2021/07/06 01:28:47;;;;;;;3.03;1.33;;;19.40;81.40;;;;;;5094415;28;20012;-36
2021/07/06 01:31:12;;;;;;;3.33;1.20;;;19.30;82.10;;;;;;5094303;28;20047;-36
2021/07/06 01:33:38;;;;;;;2.50;0.95;;;19.30;81.70;;;;;;5094108;28;20059;-36
2021/07/06 01:36:07;;;;;;;1.35;1.17;;;19.40;81.40;;;;;;5094514;28;20059;-36
2021/07/06 01:38:33;;;;;;;1.02;0.90;;;19.40;81.70;;;;;;5094465;28;20020;-36
2021/07/06 01:41:00;;;;;;;1.75;1.02;;;19.30;82.10;;;;;;5094434;28;20028;-36
2021/07/06 01:43:26;;;;;;;1.08;1.00;;;19.30;82.00;;;;;;5094088;28;20027;-36
2021/07/06 01:45:52;;;;;;;4.47;1.23;;;19.20;82.10;;;;;;5094338;28;20039;-36
2021/07/06 01:48:18;;;;;;;1.27;1.17;;;19.10;82.80;;;;;;5095670;28;20024;-36
2021/07/06 01:50:44;;;;;;;2.63;1.13;;;19.20;82.40;;;;;;5094060;28;20112;-36
2021/07/06 01:53:13;;;;;;;2.42;1.00;;;19.20;82.40;;;;;;5093941;28;20020;-36
2021/07/06 01:55:41;;;;;;;1.25;1.00;;;19.20;83.10;;;;;;5094221;28;20035;-36
2021/07/06 01:58:09;;;;;;;6.43;0.90;;;19.20;82.60;;;;;;5094927;28;20020;-37
2021/07/06 02:00:41;;;;;;;3.50;0.70;;;19.20;83.00;;;;;;5094303;28;20052;-36
2021/07/06 02:03:09;;;;;;;1.20;0.75;;;19.30;83.00;;;;;;5079302;28;20111;-36
2021/07/06 02:05:42;;;;;;;1.95;1.10;;;19.10;83.40;;;;;;5096851;28;20028;-36
2021/07/06 02:08:15;;;;;;;3.22;1.27;;;19.00;83.40;;;;;;5096752;28;20024;-36
2021/07/06 02:10:46;;;;;;;1.35;0.80;;;19.00;83.70;;;;;;5096996;28;20045;-38
2021/07/06 02:13:16;;;;;;;1.88;0.88;;;18.90;83.80;;;;;;5079986;28;20410;-37
2021/07/06 02:15:43;;;;;;;2.10;1.10;;;18.80;84.20;;;;;;5096867;28;20028;-37
2021/07/06 02:18:15;;;;;;;0.88;0.88;;;18.80;84.50;;;;;;5097763;28;20123;-36
2021/07/06 02:20:54;;;;;;;1.15;0.90;;;18.90;84.40;;;;;;5085811;28;20032;-36
2021/07/06 02:23:22;;;;;;;1.00;1.00;;;19.00;84.20;;;;;;5078389;28;20032;-44
2021/07/06 02:25:49;;;;;;;2.17;1.02;;;18.90;84.40;;;;;;5098534;28;20016;-36
2021/07/06 02:28:18;;;;;;;1.25;1.15;;;19.00;84.30;;;;;;5080671;28;20023;-36
2021/07/06 02:30:44;;;;;;;1.40;1.20;;;18.90;84.60;;;;;;5093822;28;20016;-36
2021/07/06 02:33:10;;;;;;;2.63;1.27;;;18.80;85.00;;;;;;5093547;28;20130;-36
2021/07/06 02:35:36;;;;;;;3.42;1.13;;;18.80;85.00;;;;;;5075379;28;20443;-37
2021/07/06 02:38:02;;;;;;;6.80;1.38;;;18.80;84.80;;;;;;5075354;28;20119;-37
2021/07/06 02:40:29;;;;;;;1.60;1.17;;;18.80;85.00;;;;;;5075619;28;20460;-37
2021/07/06 02:42:55;;;;;;;1.40;1.20;;;18.80;84.40;;;;;;5075218;28;20207;-36
2021/07/06 02:45:21;;;;;;;3.38;1.20;;;18.80;85.00;;;;;;5075193;28;20115;-36
2021/07/06 02:47:48;;;;;;;1.58;1.20;;;18.80;84.10;;;;;;5094112;28;20028;-36
2021/07/06 02:50:15;;;;;;;2.17;1.30;;;18.80;83.90;;;;;;5093528;28;20452;-36
2021/07/06 02:52:41;;;;;;;5.60;1.67;;;18.80;84.20;;;;;;5075187;28;20396;-36
2021/07/06 02:55:07;;;;;;;10.75;1.20;;;18.80;83.70;;;;;;5075134;28;20476;-36
2021/07/06 02:57:35;;;;;;;6.50;1.15;;;18.80;83.30;;;;;;5093435;28;20023;-36
2021/07/06 03:00:12;;;;;;;1.27;1.00;;;18.90;82.60;;;;;;5093447;28;20051;-37
2021/07/06 03:02:39;;;;;;;1.02;0.90;;;19.00;82.20;;;;;;5077048;28;20136;-37
2021/07/06 03:05:08;;;;;;;1.67;0.98;;;19.10;81.80;;;;;;5093340;28;20082;-37
2021/07/06 03:07:34;;;;;;;2.63;0.98;;;19.10;82.00;;;;;;5093425;28;20154;-37
2021/07/06 03:10:04;;;;;;;4.22;1.10;;;19.20;81.90;;;;;;5094216;28;20349;-39
2021/07/06 03:12:30;;;;;;;1.85;1.10;;;19.20;80.80;;;;;;5096800;28;20073;-37
2021/07/06 03:14:56;;;;;;;5.40;2.08;;;19.20;81.50;;;;;;5097001;28;20434;-37
2021/07/06 03:17:21;;;;;;;5.03;1.02;;;19.20;81.50;;;;;;5097127;28;20031;-36
2021/07/06 03:19:47;;;;;;;4.40;2.03;;;19.20;81.30;;;;;;5096853;28;20043;-37
2021/07/06 03:22:13;;;;;;;4.00;1.20;;;19.20;80.50;;;;;;5096973;28;20020;-36
2021/07/06 03:24:38;;;;;;;2.80;1.13;;;19.20;80.90;;;;;;5096782;28;20099;-36
2021/07/06 03:27:04;;;;;;;2.35;1.00;;;19.20;80.80;;;;;;5096603;28;20024;-36
2021/07/06 03:29:30;;;;;;;1.48;1.10;;;19.20;81.10;;;;;;5096467;28;20111;-36
2021/07/06 03:31:56;;;;;;;2.50;0.85;;;19.10;81.80;;;;;;5096806;28;20047;-36
2021/07/06 03:34:21;;;;;;;4.18;1.45;;;19.30;80.50;;;;;;5096491;28;20040;-36
2021/07/06 03:36:47;;;;;;;2.22;0.90;;;19.20;80.30;;;;;;5096475;28;20055;-37
2021/07/06 03:39:13;;;;;;;3.15;0.82;;;19.30;80.70;;;;;;5096422;28;20034;-37
2021/07/06 03:41:39;;;;;;;3.72;1.33;;;19.30;80.80;;;;;;5096497;28;20048;-36
2021/07/06 03:44:05;;;;;;;5.63;1.42;;;19.30;80.30;;;;;;5096239;28;20023;-37
2021/07/06 03:46:31;;;;;;;4.15;1.23;;;19.30;80.70;;;;;;5078068;28;20028;-36
2021/07/06 03:48:56;;;;;;;1.92;1.30;;;19.10;81.30;;;;;;5096302;28;20507;-37
2021/07/06 03:51:22;;;;;;;1.30;1.00;;;19.20;80.70;;;;;;5096668;28;20047;-36
2021/07/06 03:53:48;;;;;;;3.38;1.10;;;19.10;81.00;;;;;;5096365;28;20027;-37
2021/07/06 03:56:13;;;;;;;3.78;1.75;;;19.30;80.50;;;;;;5095988;28;20074;-37
2021/07/06 03:58:39;;;;;;;5.15;1.30;;;19.30;79.80;;;;;;5096784;28;20020;-36
2021/07/06 04:01:04;;;;;;;8.07;1.58;;;19.40;78.90;;;;;;5077721;28;20024;-37
2021/07/06 04:03:30;;;;;;;3.00;1.35;;;19.40;79.00;;;;;;5095867;28;20103;-37
2021/07/06 04:05:56;;;;;;;2.50;0.90;;;19.70;77.80;;;;;;5095730;28;20020;-36
2021/07/06 04:08:21;;;;;;;2.25;1.10;;;19.60;77.80;;;;;;5095866;28;20024;-36
2021/07/06 04:10:47;;;;;;;1.85;0.90;;;19.70;77.50;;;;;;5095699;28;20248;-36
2021/07/06 04:13:12;;;;;;;5.18;1.10;;;19.70;76.70;;;;;;5095669;28;20027;-37
2021/07/06 04:15:38;;;;;;;5.80;1.27;;;19.80;76.30;;;;;;5095969;28;20032;-37
2021/07/06 04:18:04;;;;;;;1.63;1.25;;;20.00;75.70;;;;;;5077500;28;20101;-37
2021/07/06 04:20:30;;;;;;;14.25;1.40;;;20.00;75.60;;;;;;5095441;28;20028;-36
2021/07/06 04:22:56;;;;;;;4.53;0.95;;;20.10;75.00;;;;;;5095562;28;20081;-36
2021/07/06 04:25:21;;;;;;;2.05;1.20;;;20.20;74.60;;;;;;5095681;28;20470;-36
2021/07/06 04:27:47;;;;;;;7.75;1.23;;;20.20;74.60;;;;;;5060591;28;20099;-36
2021/07/06 04:30:13;;;;;;;2.22;1.23;;;20.20;74.00;;;;;;5077269;28;20016;-37
2021/07/06 04:32:39;;;;;;;4.03;1.33;;;20.30;73.60;;;;;;5095598;28;20479;-37
2021/07/06 04:35:06;;;;;;;2.63;2.13;;;20.30;73.60;;;;;;5095081;28;20123;-37
2021/07/06 04:37:31;;;;;;;2.03;1.15;;;20.40;72.60;;;;;;5095427;28;20380;-36
2021/07/06 04:39:57;;;;;;;2.08;1.10;;;20.50;72.20;;;;;;5095209;28;20020;-36
2021/07/06 04:42:23;;;;;;;6.15;1.13;;;20.60;71.80;;;;;;5095172;28;20039;-36
2021/07/06 04:44:48;;;;;;;4.70;1.38;;;20.60;71.80;;;;;;5076917;28;20169;-36
2021/07/06 04:47:14;;;;;;;6.53;1.35;;;20.70;71.40;;;;;;5095482;28;20024;-36
2021/07/06 04:49:40;;;;;;;2.95;1.25;;;20.90;70.50;;;;;;5095273;28;20024;-37
2021/07/06 04:52:06;;;;;;;5.72;3.22;;;21.00;69.90;;;;;;5094976;28;20017;-36
2021/07/06 04:54:32;;;;;;;1.23;1.08;;;21.20;69.50;;;;;;5094911;28;20035;-36
2021/07/06 04:56:58;;;;;;;2.67;1.08;;;21.20;69.50;;;;;;5094887;28;20028;-36
2021/07/06 04:59:23;;;;;;;2.95;1.13;;;21.10;69.60;;;;;;5094965;28;20492;-36
2021/07/06 05:01:50;;;;;;;2.60;1.48;;;21.20;69.40;;;;;;5095603;28;20467;-36
2021/07/06 05:04:16;;;;;;;3.15;1.10;;;21.20;69.30;;;;;;5094569;28;20034;-36
2021/07/06 05:06:42;;;;;;;4.25;0.95;;;21.10;69.70;;;;;;5094602;28;20107;-36
2021/07/06 05:09:08;;;;;;;2.97;1.05;;;21.10;70.10;;;;;;5094617;28;20073;-36
2021/07/06 05:11:34;;;;;;;3.17;1.05;;;21.10;70.60;;;;;;5076433;28;20411;-37
2021/07/06 05:14:01;;;;;;;3.40;1.05;;;21.00;71.30;;;;;;5094352;28;20024;-37
2021/07/06 05:16:27;;;;;;;2.80;1.27;;;21.00;71.30;;;;;;5094740;28;20332;-37
2021/07/06 05:18:52;;;;;;;1.92;1.10;;;20.80;72.70;;;;;;5094423;28;20028;-38
2021/07/06 05:21:18;;;;;;;1.52;1.02;;;20.70;73.70;;;;;;5094282;28;20024;-36
2021/07/06 05:23:44;;;;;;;2.40;1.30;;;20.60;73.60;;;;;;5094229;28;20084;-36
2021/07/06 05:26:12;;;;;;;3.97;1.45;;;20.70;73.50;;;;;;5093965;28;20481;-37
2021/07/06 05:28:38;;;;;;;1.42;1.33;;;20.40;75.30;;;;;;5094084;28;20099;-37
2021/07/06 05:31:04;;;;;;;4.82;1.90;;;20.40;75.70;;;;;;5094258;28;20241;-38
2021/07/06 05:33:30;;;;;;;4.18;1.63;;;20.30;77.20;;;;;;5093491;28;20050;-38
2021/07/06 05:35:56;;;;;;;3.05;1.30;;;20.20;77.10;;;;;;5093973;28;20023;-37
2021/07/06 05:38:22;;;;;;;4.20;1.60;;;20.20;78.00;;;;;;5094381;28;20479;-37
2021/07/06 05:40:56;;;;;;;2.55;1.20;;;20.10;78.50;;;;;;5094340;28;20024;-37
2021/07/06 05:43:23;;;;;;;6.90;1.35;;;20.00;79.30;;;;;;5094244;28;20561;-37
2021/07/06 05:45:53;;;;;;;5.50;1.60;;;19.80;79.80;;;;;;5094049;28;20074;-37
2021/07/06 05:48:19;;;;;;;4.80;1.60;;;19.70;81.50;;;;;;5094091;28;20428;-37
2021/07/06 05:50:45;;;;;;;4.00;1.60;;;19.50;82.50;;;;;;5093867;28;20055;-37
2021/07/06 05:53:11;;;;;;;6.75;1.80;;;19.50;82.50;;;;;;5093671;28;20379;-36
2021/07/06 05:55:38;;;;;;;2.05;1.50;;;19.40;84.00;;;;;;5094055;28;20107;-37
2021/07/06 05:58:04;;;;;;;2.50;2.30;;;19.30;83.70;;;;;;5093657;28;20020;-37
2021/07/06 06:00:30;;;;;;;5.32;1.40;;;19.30;83.60;;;;;;5075359;28;20028;-37
2021/07/06 06:02:55;;;;;;;1.95;1.38;;;19.30;83.90;;;;;;5093847;28;20077;-38
2021/07/06 06:05:21;;;;;;;6.35;1.88;;;19.30;84.00;;;;;;5093499;28;20062;-37
2021/07/06 06:07:49;;;;;;;3.35;1.50;;;19.30;84.50;;;;;;5093797;28;20024;-38
2021/07/06 06:10:15;;;;;;;2.95;1.83;;;19.30;84.10;;;;;;5093765;28;20052;-37
2021/07/06 06:12:41;;;;;;;7.07;2.08;;;19.20;84.50;;;;;;5093753;28;20024;-37
2021/07/06 06:15:08;;;;;;;4.93;1.40;;;19.20;84.40;;;;;;5093429;28;20486;-38
2021/07/06 06:17:35;;;;;;;4.72;1.88;;;19.20;84.70;;;;;;5093546;28;20024;-38
2021/07/06 06:20:00;;;;;;;6.45;1.88;;;19.20;84.20;;;;;;5093611;28;20024;-37
2021/07/06 06:22:26;;;;;;;3.70;1.73;;;19.30;84.30;;;;;;5093669;28;20023;-43
2021/07/06 06:24:52;;;;;;;2.78;1.38;;;19.30;84.20;;;;;;5093412;28;20110;-37
2021/07/06 06:27:17;;;;;;;4.32;1.60;;;19.20;84.30;;;;;;5093346;28;20091;-37
2021/07/06 06:29:43;;;;;;;3.08;1.25;;;19.20;84.30;;;;;;5093308;28;20077;-37
2021/07/06 06:32:09;;;;;;;2.00;1.75;;;19.20;84.30;;;;;;5074908;28;20107;-37
2021/07/06 06:34:35;;;;;;;1.90;1.23;;;19.30;83.90;;;;;;5092872;28;20048;-37
2021/07/06 06:37:00;;;;;;;1.60;1.50;;;19.30;83.30;;;;;;5093044;28;20055;-36
2021/07/06 06:39:26;;;;;;;1.70;1.55;;;19.30;83.20;;;;;;5093220;28;20024;-36
2021/07/06 06:41:52;;;;;;;5.53;1.50;;;19.10;84.30;;;;;;5092975;28;20067;-37
2021/07/06 06:44:17;;;;;;;4.32;1.40;;;19.10;84.00;;;;;;5093518;28;20108;-36
2021/07/06 06:46:44;;;;;;;1.35;1.20;;;19.00;85.20;;;;;;5097434;28;20024;-36
2021/07/06 06:49:09;;;;;;;3.67;1.30;;;19.00;84.70;;;;;;5096995;28;20020;-37
2021/07/06 06:51:35;;;;;;;1.52;1.42;;;18.90;84.80;;;;;;5097004;28;20031;-37
2021/07/06 06:54:01;;;;;;;2.90;1.38;;;18.90;84.10;;;;;;5097511;28;20024;-37
2021/07/06 06:56:31;;;;;;;3.67;1.50;;;19.00;83.70;;;;;;5097215;28;20030;-38
2021/07/06 06:58:56;;;;;;;2.38;0.90;;;19.00;84.00;;;;;;5097048;28;20031;-36
2021/07/06 07:01:23;;;;;;;4.25;1.17;;;19.00;83.90;;;;;;5078189;28;20483;-37
2021/07/06 07:03:49;;;;;;;2.08;1.23;;;18.90;83.70;;;;;;5096883;28;20020;-37
2021/07/06 07:06:15;;;;;;;1.05;0.55;;;18.90;83.80;;;;;;5096814;28;20422;-37
2021/07/06 07:08:40;;;;;;;2.28;1.33;;;18.90;83.90;;;;;;5096775;28;20024;-36
2021/07/06 07:11:06;;;;;;;2.33;1.67;;;18.90;83.80;;;;;;5096333;28;20077;-36
2021/07/06 07:13:32;;;;;;;1.60;1.15;;;19.00;83.50;;;;;;5096641;28;20091;-37
2021/07/06 07:15:57;;;;;;;2.70;1.20;;;18.90;83.90;;;;;;5096916;28;20062;-38
2021/07/06 07:18:23;;;;;;;6.38;2.97;;;18.90;83.90;;;;;;5096695;28;20501;-36
2021/07/06 07:20:49;;;;;;;2.10;1.17;;;18.80;82.60;;;;;;5096651;28;20020;-36
2021/07/06 07:23:14;;;;;;;3.03;0.98;;;19.00;82.00;;;;;;5096507;28;20564;-38
2021/07/06 07:25:40;;;;;;;2.13;1.10;;;18.90;82.40;;;;;;5096370;28;20533;-36
2021/07/06 07:28:06;;;;;;;4.47;1.00;;;18.90;81.20;;;;;;5096431;28;20029;-36
2021/07/06 07:30:32;;;;;;;1.80;1.13;;;19.00;81.20;;;;;;5096161;28;20024;-37
2021/07/06 07:32:57;;;;;;;2.13;0.90;;;19.20;80.10;;;;;;5096231;28;20051;-37
2021/07/06 07:35:23;;;;;;;0.80;0.80;;;19.30;78.60;;;;;;5077830;28;20083;-36
2021/07/06 07:37:49;;;;;;;2.95;0.85;;;19.50;78.80;;;;;;5096224;28;20024;-36
2021/07/06 07:40:17;;;;;;;3.72;1.00;;;19.60;78.10;;;;;;5095862;28;20035;-36
2021/07/06 07:42:43;;;;;;;1.23;0.63;;;19.70;77.50;;;;;;5096368;28;20028;-37
2021/07/06 07:45:09;;;;;;;2.03;0.75;;;19.80;76.40;;;;;;5096011;28;20027;-37
2021/07/06 07:47:35;;;;;;;2.42;1.48;;;19.80;77.00;;;;;;5095922;28;20367;-37
2021/07/06 07:50:04;;;;;;;2.03;0.90;;;19.80;77.30;;;;;;5077128;28;20111;-37
2021/07/06 07:52:32;;;;;;;2.35;0.95;;;19.70;78.00;;;;;;5077266;28;20035;-37
2021/07/06 07:54:57;;;;;;;1.20;1.10;;;19.40;79.10;;;;;;5077291;28;20020;-37
2021/07/06 07:57:23;;;;;;;1.77;1.00;;;19.50;80.10;;;;;;5094777;28;20027;-37
2021/07/06 07:59:54;;;;;;;3.30;1.00;;;19.50;79.40;;;;;;5095605;28;20078;-37
2021/07/06 08:02:20;;;;;;;;;;;19.70;79.20;;;;;;5095766;28;20028;-37
2021/07/06 08:04:45;;;;;;;2.17;1.30;;;19.70;79.80;;;;;;5094968;28;19914;-37
2021/07/06 08:07:11;;;;;;;1.83;1.27;;;19.70;80.90;;;;;;5076709;28;20115;-37
2021/07/06 08:09:37;;;;;;;2.30;0.98;;;19.60;81.10;;;;;;5095100;28;20047;-37
2021/07/06 08:12:04;;;;;;;1.27;0.95;;;19.60;81.20;;;;;;5094667;28;20044;-37
2021/07/06 08:14:30;;;;;;;2.15;0.80;;;19.80;80.80;;;;;;5094697;28;20073;-37
2021/07/06 08:16:57;;;;;;;4.10;1.00;;;19.80;80.50;;;;;;5094738;28;20084;-38
2021/07/06 08:19:23;;;;;;;1.98;1.17;;;19.80;80.60;;;;;;5095016;28;20020;-39
2021/07/06 08:21:50;;;;;;;1.40;1.10;;;19.80;80.20;;;;;;5094758;28;20035;-37
2021/07/06 08:24:16;;;;;;;7.78;1.77;;;19.90;80.20;;;;;;5094848;28;20027;-38
2021/07/06 08:26:42;;;;;;;1.42;1.02;;;19.80;80.50;;;;;;5094836;28;20028;-38
2021/07/06 08:29:08;;;;;;;1.05;0.95;;;19.90;80.50;;;;;;5094833;28;20099;-37
2021/07/06 08:31:34;;;;;;;3.63;1.10;;;19.80;81.10;;;;;;5094967;28;20063;-37
2021/07/06 08:34:00;;;;;;;6.70;1.63;;;19.80;81.30;;;;;;5094174;28;20036;-40
2021/07/06 08:36:25;;;;;;;9.80;4.90;;;19.90;80.40;;;;;;5094476;28;20058;-37
2021/07/06 08:38:51;;;;;;;1.95;1.30;;;19.90;80.60;;;;;;5094471;28;20384;-36
2021/07/06 08:41:17;;;;;;;3.67;1.40;;;20.00;80.40;;;;;;5092309;28;20036;-37
2021/07/06 08:43:43;;;;;;;4.45;1.30;;;19.90;81.00;;;;;;5094629;28;20032;-37
2021/07/06 08:46:14;;;;;;;1.30;1.25;;;20.20;80.40;;;;;;5094857;28;20115;-37
2021/07/06 08:48:44;;;;;;;2.50;1.00;;;20.30;79.70;;;;;;5094946;28;20062;-38
2021/07/06 08:51:10;;;;;;;2.20;1.17;;;20.30;79.50;;;;;;5060335;28;20027;-37
2021/07/06 08:53:36;;;;;;;1.55;1.10;;;20.70;78.60;;;;;;5094415;28;20054;-37
2021/07/06 08:56:02;;;;;;;1.10;0.90;;;20.80;78.00;;;;;;5094920;28;20031;-37
2021/07/06 08:58:27;;;;;;;2.25;1.23;;;20.60;78.40;;;;;;5094099;28;20150;-37
2021/07/06 09:00:53;;;;;;;2.00;1.35;;;20.90;77.60;;;;;;5094514;28;20170;-37
2021/07/06 09:03:20;;;;;;;1.73;1.20;;;20.90;78.40;;;;;;5094152;28;20496;-36
2021/07/06 09:05:45;;;;;;;1.88;1.20;;;21.00;77.90;;;;;;5094394;28;20028;-36
2021/07/06 09:08:17;;;;;;;1.95;1.10;;;20.90;78.60;;;;;;5093223;28;20379;-38
2021/07/06 09:10:43;;;;;;;4.10;1.35;;;20.90;78.30;;;;;;5093593;28;20033;-38
2021/07/06 09:13:28;;;;;;;2.53;1.60;;;20.90;78.10;;;;;;5093957;28;20020;-38
2021/07/06 09:15:56;;;;;;;1.60;1.25;;;20.70;78.90;;;;;;5093768;28;20048;-38
2021/07/06 09:18:23;;;;;;;4.20;1.65;;;20.60;79.50;;;;;;5094100;28;20027;-38
2021/07/06 09:21:04;;;;;;;1.85;1.40;;;20.80;79.40;;;;;;5093806;28;20032;-38
2021/07/06 09:23:34;;;;;;;3.65;1.75;;;20.90;78.50;;;;;;5094116;28;20417;-38
2021/07/06 09:26:09;;;;;;;1.92;1.42;;;21.00;78.50;;;;;;5093980;28;20094;-38
2021/07/06 09:28:37;;;;;;;2.20;1.25;;;21.10;77.70;;;;;;5093917;28;20040;-38
2021/07/06 09:31:17;;;;;;;2.08;1.23;;;20.80;78.00;;;;;;5075406;28;20119;-37
2021/07/06 09:33:54;;;;;;;3.90;2.03;;;21.00;77.70;;;;;;5093365;28;20055;-38
2021/07/06 09:36:38;;;;;;;2.22;1.67;;;21.10;77.50;;;;;;5075113;28;20056;-36
2021/07/06 09:39:08;;;;;;;2.08;1.30;;;20.80;77.90;;;;;;5093489;28;20024;-38
2021/07/06 09:41:34;;;;;;;3.05;1.38;;;20.70;79.00;;;;;;5093956;28;20497;-37
2021/07/06 09:44:19;;;;;;;2.95;1.30;;;20.90;78.50;;;;;;5093683;28;20111;-40
2021/07/06 09:47:12;;;;;;;1.45;1.17;;;20.90;77.30;;;;;;5075216;28;20035;-38
2021/07/06 09:49:42;;;;;;;1.67;0.95;;;20.90;77.60;;;;;;5094228;28;20086;-38
2021/07/06 09:52:09;;;;;;;1.63;0.93;;;21.00;76.70;;;;;;5093780;28;20093;-38
2021/07/06 09:54:39;;;;;;;1.77;1.48;;;21.10;76.00;;;;;;5093373;28;20024;-38
2021/07/06 09:57:27;;;;;;;1.27;1.15;;;21.10;75.80;;;;;;5093300;28;20028;-36
2021/07/06 10:00:19;;;;;;;1.55;1.00;;;21.20;75.40;;;;;;5093209;28;20111;-37
2021/07/06 10:02:45;;;;;;;4.88;0.90;;;21.30;74.00;;;;;;5070639;28;20482;-41
2021/07/06 10:05:14;;;;;;;3.17;1.20;;;21.20;74.40;;;;;;5074657;28;20024;-43
2021/07/06 10:07:40;;;;;;;3.35;1.10;;;21.40;74.10;;;;;;5093790;28;20046;-40
2021/07/06 10:10:15;;;;;;;0.70;0.60;;;21.30;73.40;;;;;;5092572;28;20103;-36
2021/07/06 10:12:48;;;;;;;2.78;0.90;;;21.20;72.60;;;;;;5074851;28;20051;-37
2021/07/06 10:15:19;;;;;;;1.65;0.55;;;21.10;73.40;;;;;;5076053;28;20030;-37
2021/07/06 10:17:45;;;;;;;0.63;0.60;;;21.10;72.60;;;;;;5093079;28;20020;-37
2021/07/06 10:20:20;;;;;;;1.02;0.73;;;21.20;73.10;;;;;;5092860;28;20426;-37
2021/07/06 10:22:46;;;;;;;0.60;0.60;;;21.20;72.80;;;;;;5074756;28;20116;-37
2021/07/06 10:25:12;;;;;;;1.30;0.80;;;21.10;72.80;;;;;;5092962;28;20106;-37
2021/07/06 10:27:43;;;;;;;1.88;1.00;;;21.00;72.20;;;;;;5074817;28;20148;-37
2021/07/06 10:30:16;;;;;;;2.50;1.00;;;21.20;72.10;;;;;;5093113;28;20046;-37
2021/07/06 10:32:51;;;;;;;0.82;0.82;;;21.30;72.10;;;;;;5093012;28;20046;-37
2021/07/06 10:35:38;;;;;;;0.70;0.70;;;21.40;71.20;;;;;;5092564;28;20115;-37
2021/07/06 10:38:40;;;;;;;4.15;0.60;;;21.30;71.30;;;;;;5092614;28;20028;-37
2021/07/06 10:41:08;;;;;;;3.65;1.17;;;21.50;70.80;;;;;;5040343;28;20040;-39
2021/07/06 10:43:37;;;;;;;3.58;0.73;;;21.70;69.90;;;;;;5074534;28;20383;-38
2021/07/06 10:46:20;;;;;;;1.10;0.88;;;21.90;69.40;;;;;;5092514;28;20514;-38
2021/07/06 10:48:50;;;;;;;2.13;0.95;;;22.00;69.70;;;;;;5092623;28;20046;-37
2021/07/06 10:51:34;;;;;;;2.47;0.90;;;22.50;68.80;;;;;;5092853;28;20103;-37
2021/07/06 10:54:18;;;;;;;2.15;0.82;;;22.80;66.30;;;;;;5092981;28;20020;-37
2021/07/06 10:56:48;;;;;;;2.45;0.77;;;23.90;63.50;;;;;;5092533;28;20115;-38
2021/07/06 10:59:31;;;;;;;2.35;1.10;;;24.50;62.30;;;;;;5093663;28;20047;-37
2021/07/06 11:02:12;;;;;;;0.70;0.70;;;24.20;62.50;;;;;;5093253;28;20097;-39
2021/07/06 11:04:45;;;;;;;;;;;23.60;63.20;;;;;;5093450;28;20365;-42
2021/07/06 11:07:13;;;;;;;1.45;0.70;;;23.50;64.00;;;;;;5092537;28;20410;-37
2021/07/06 11:09:38;;;;;;;7.25;1.27;;;23.20;61.60;;;;;;5092230;28;20020;-36
2021/07/06 11:12:24;;;;;;;0.77;0.70;;;22.60;63.70;;;;;;5073846;28;20491;-36
2021/07/06 11:14:54;;;;;;;4.38;1.40;;;22.10;63.20;;;;;;5092544;28;20031;-39
2021/07/06 11:17:39;;;;;;;1.65;0.95;;;22.00;63.80;;;;;;5092832;28;20375;-36
2021/07/06 11:20:06;;;;;;;3.63;1.10;;;21.80;64.30;;;;;;5092751;28;20540;-41
2021/07/06 11:22:45;;;;;;;3.15;1.20;;;21.60;64.50;;;;;;5092817;28;20028;-37
2021/07/06 11:25:36;;;;;;;1.48;0.93;;;21.70;63.50;;;;;;5092450;28;20036;-38
2021/07/06 11:28:06;;;;;;;2.67;1.30;;;22.20;60.40;;;;;;5092156;28;20418;-37
2021/07/06 11:30:55;;;;;;;5.43;1.05;;;21.90;59.60;;;;;;5092663;28;20076;-36
2021/07/06 11:33:36;;;;;;;1.98;0.80;;;22.40;58.20;;;;;;5095494;28;20024;-37
2021/07/06 11:36:28;;;;;;;1.65;0.98;;;23.10;55.10;;;;;;5096842;28;20046;-37
2021/07/06 11:38:55;;;;;;;1.00;0.65;;;23.80;54.10;;;;;;5095647;28;20406;-37
2021/07/06 11:41:23;;;;;;;1.15;0.60;;;24.00;52.00;;;;;;5095807;28;20020;-37
2021/07/06 11:43:49;;;;;;;1.35;0.60;;;23.50;52.90;;;;;;5096045;28;20034;-38
2021/07/06 11:46:19;;;;;;;1.77;0.63;;;23.70;52.30;;;;;;5096308;28;20180;-39
2021/07/06 11:48:51;;;;;;;;;;;23.40;52.90;;;;;;5097024;28;20032;-36
2021/07/06 11:51:19;;;;;;;0.73;0.73;;;24.60;51.20;;;;;;5077530;28;19911;-37
2021/07/06 11:53:59;;;;;;;1.65;0.88;;;24.80;50.00;;;;;;5077516;28;20035;-37
2021/07/06 11:56:26;;;;;;;2.30;0.93;;;23.90;52.90;;;;;;5096168;28;20053;-36
2021/07/06 11:58:52;;;;;;;1.38;1.00;;;23.20;54.30;;;;;;5095588;28;20259;-37
2021/07/06 12:01:18;;;;;;;6.65;1.20;;;23.00;55.90;;;;;;5095584;28;20103;-37
2021/07/06 12:03:44;;;;;;;2.50;1.42;;;23.30;54.80;;;;;;5095629;28;20035;-38
2021/07/06 12:06:12;;;;;;;2.20;0.70;;;24.30;51.30;;;;;;5095505;28;20024;-38
2021/07/06 12:08:45;;;;;;;1.73;0.70;;;24.90;49.40;;;;;;5077407;28;20027;-38
2021/07/06 12:11:13;;;;;;;3.90;1.08;;;24.40;50.20;;;;;;5077628;28;20023;-37
2021/07/06 12:13:41;;;;;;;0.77;0.60;;;23.80;52.10;;;;;;5095332;28;20379;-38
2021/07/06 12:16:17;;;;;;;2.63;0.90;;;23.70;51.70;;;;;;5096100;28;20471;-37
2021/07/06 12:19:09;;;;;;;6.45;1.33;;;23.50;52.20;;;;;;5096238;28;20027;-36
2021/07/06 12:21:41;;;;;;;10.32;3.05;;;23.00;52.40;;;;;;5078219;28;20032;-38
2021/07/06 12:24:12;;;;;;;4.50;1.20;;;23.90;48.80;;;;;;5096270;28;20021;-38
2021/07/06 12:26:47;;;;;;;1.35;0.70;;;24.40;47.20;;;;;;5076855;28;20471;-37
2021/07/06 12:29:13;;;;;;;1.58;0.95;;;25.00;45.90;;;;;;5095370;28;20012;-37
2021/07/06 12:31:42;;;;;;;4.65;0.90;;;25.40;43.60;;;;;;5094775;28;20035;-37
2021/07/06 12:34:16;;;;;;;1.95;0.60;;;25.60;42.10;;;;;;5095036;28;20044;-37
2021/07/06 12:36:47;;;;;;;1.38;0.60;;;25.80;42.70;;;;;;5094593;28;20031;-37
2021/07/06 12:39:26;;;;;;;0.75;0.43;;;26.40;41.30;;;;;;5095009;28;20039;-37
2021/07/06 12:41:55;;;;;;;4.00;0.63;;;25.80;41.10;;;;;;5097540;28;20024;-38
2021/07/06 12:44:31;;;;;;;1.42;0.60;;;25.40;42.40;;;;;;5076979;28;20032;-38
2021/07/06 12:47:17;;;;;;;1.48;0.52;;;25.10;42.70;;;;;;5094123;28;20107;-38
2021/07/06 12:49:50;;;;;;;2.13;0.65;;;25.40;42.50;;;;;;5076656;28;20027;-39
2021/07/06 12:52:17;;;;;;;0.80;0.60;;;26.00;41.20;;;;;;5094564;28;20161;-38
2021/07/06 12:54:44;;;;;;;3.45;0.93;;;24.90;43.20;;;;;;5076411;28;20030;-38